• Join FlightAware (Why Join?)
  • Login
  • US Flag 
Rudolph Flight #1: Arrived! 
09:50AM EST


 

Airport Tracker/Info


-or-


 

Live Flight TrackerFlight Track Log ✈ CTL22 ✈ 13-May-2013 ✈ KAZO - KBKL

Flight Track Log - Related Links

Times and Time Zones

All times are in EDT time to prevent confusion due to time zone crossing. See the CTL22 flight status page for this flight to view local times or setup timezone preferences in your user account.

Time Position Orientation Groundspeed Altitude Reporting Facility
EDT Latitude Longitude Course Direction KTS MPH feet Rate Location/Type
08:07PM 42.1994 -85.3831 116° Southeast 154 177 4,500  Level Chicago Center
08:08PM 42.1792 -85.3264 116° Southeast 163 188 5,200 660 Climbing Chicago Center
08:09PM 42.1803 -85.2301 103° East  Level Estimated
08:09PM 42.1578 -85.2689 117° Southeast 169 194 5,900  Level Chicago Center
08:10PM 42.1694 -85.1659 103° East  Level Estimated
08:10PM 42.1372 -85.2103 115° Southeast 171 197 6,600  Level Chicago Center
08:11PM 42.1585 -85.1016 103° East  Level Estimated
08:11PM 42.1161 -85.1522 116° Southeast 172 198 7,000  Level Chicago Center
08:12PM 42.0947 -85.0883 114° Southeast 180 207 7,000  Level Chicago Center
08:13PM 42.0700 -85.0131 114° Southeast 183 211 7,100  Climbing Chicago Center
08:14PM 42.0472 -84.9511 116° Southeast 183 211 7,100  Level Chicago Center
08:15PM 42.0269 -84.8894 114° Southeast 180 207 7,100 -60 Level Chicago Center
08:16PM 42.0064 -84.8289 115° Southeast 179 206 7,000 -60 Descending Chicago Center
08:17PM 41.9844 -84.7678 116° Southeast 179 206 7,000  Level Chicago Center
08:18PM 41.9631 -84.7075 115° Southeast 179 206 7,000  Level Chicago Center
08:19PM 41.9369 -84.6364 116° Southeast 177 204 7,000  Level Chicago Center
08:20PM 41.9150 -84.5778 117° Southeast 177 204 7,000  Level Chicago Center
08:21PM 41.8922 -84.5167 117° Southeast 180 207 7,000  Level Chicago Center
08:22PM 41.8678 -84.4597 120° Southeast 179 206 7,000  Level Chicago Center
08:23PM 41.8431 -84.4019 120° Southeast 178 205 7,100  Climbing Chicago Center
08:24PM 41.8192 -84.3428 118° Southeast 179 206 7,100  Level Chicago Center
08:25PM 41.7881 -84.2744 121° Southeast 179 206 7,100  Level Chicago Center
08:26PM 41.7644 -84.2156 118° Southeast 180 207 7,100  Level Chicago Center
08:27PM 41.7417 -84.1556 117° Southeast 180 207 7,100  Level Chicago Center
08:29PM 41.7132 -84.0884 120° Southeast  Level FlightAware Approximate
08:36PM 41.5805 -83.6972 92° East  Level FlightAware Approximate
08:37PM 41.5784 -83.6348 93° East  Level FlightAware Approximate
08:38PM 41.5763 -83.5724 93° East  Level FlightAware Approximate
08:39PM 41.5742 -83.5101 93° East  Level FlightAware Approximate
08:40PM 41.5720 -83.4477 93° East  Level FlightAware Approximate
08:41PM 41.5698 -83.3854 93° East  Level FlightAware Approximate
08:42PM 41.5675 -83.3230 93° East  Level FlightAware Approximate
08:43PM 41.5652 -83.2607 93° East  Level FlightAware Approximate
08:44PM 41.5629 -83.1983 93° East  Level FlightAware Approximate
08:45PM 41.5606 -83.1360 93° East  Level FlightAware Approximate
08:45PM 41.6200 -82.9858 92° East 186 214 7,100  Level Cleveland Center
08:45PM 41.6125 -82.9439 103° East 186 214 7,100 -120 Level Cleveland Center
08:46PM 41.5582 -83.0736 93° East  Level FlightAware Approximate
08:46PM 41.6075 -82.8769 96° East 187 215 7,000  Level Cleveland Center
08:47PM 41.5557 -83.0113 93° East  Level FlightAware Approximate
08:48PM 41.5533 -82.9490 93° East  Level FlightAware Approximate
08:48PM 41.6050 -82.7936 92° East 189 217 7,100  Level Cleveland Center
08:49PM 41.5508 -82.8867 93° East  Level FlightAware Approximate
08:49PM 41.5983 -82.7156 96° East 189 217 7,100  Level Cleveland Center
08:50PM 41.5490 -82.8243 92° East  Level FlightAware Approximate
08:50PM 41.5953 -82.6489 93° East 189 217 7,100  Level Cleveland Center
08:50PM 41.5919 -82.5961 95° East 191 220 7,000 -60 Descending Cleveland Center
08:52PM 41.5853 -82.5125 96° East 193 222 7,000  Level Cleveland Center
08:53PM 41.5842 -82.4431 91° East 192 221 7,000  Level Cleveland Center
08:54PM 41.5769 -82.3681 97° East 191 220 7,100 -180 Climbing Cleveland Center
08:55PM 41.5697 -82.2956 98° East 197 227 6,700 -840 Descending Cleveland Center
08:56PM 41.5753 -82.2069 85° East 224 258 5,400 -1,200 Descending Cleveland Center
08:57PM 41.5844 -82.1406 80° East 210 242 4,300 -1,320 Descending Cleveland Center
08:58PM 41.5961 -82.0575 79° East 212 244 2,900 -1,200 Descending Cleveland Center
08:59PM 41.6011 -81.9881 84° East 188 216 2,000 -480 Descending Cleveland Center
09:00PM 41.6103 -81.9244 79° East 156 180 2,000 -180 Level Cleveland Center
09:01PM 41.5900 -81.8714 117° Southeast 162 186 1,700 -180 Descending Cleveland Center
09:02PM 41.5614 -81.8236 129° Southeast 154 177 1,700 -120 Level Cleveland Center
09:03PM 41.5408 -81.7817 123° Southeast 161 185 1,500 -360 Descending Cleveland Center
09:04PM 41.5186 -81.7342 122° Southeast 135 155 1,100 -420 Descending Cleveland Center
09:06PM 41.5175 -81.6833 90° East  Level Estimated
09:13PM 41.5175 -81.6833 90° East  Level Estimated